Time;durP1;ratioP1;P1;durP2;ratioP2;P2;SDS_P1;SDS_P2;PMS_P1;PMS_P2;Temp;Humidity;BMP_temperature;BMP_pressure;BME280_temperature;BME280_humidity;BME280_pressure;Samples;Min_cycle;Max_cycle;Signal;HPM_P1;HPM_P2
2023/08/27 00:00:35;;;;;;;11.02;7.65;;;;;;;;;;5057312;28;20069;-31
2023/08/27 00:03:00;;;;;;;12.05;7.57;;;;;;;;;;5057801;28;20103;-30
2023/08/27 00:05:25;;;;;;;10.40;7.90;;;;;;;;;;5057266;28;20067;-31
2023/08/27 00:07:51;;;;;;;9.52;7.18;;;;;;;;;;5057159;28;20013;-31
2023/08/27 00:10:16;;;;;;;12.98;8.10;;;;;;;;;;5057398;28;20023;-31
2023/08/27 00:12:41;;;;;;;10.32;7.50;;;;;;;;;;5057207;28;20071;-29
2023/08/27 00:15:07;;;;;;;10.40;6.90;;;;;;;;;;5057649;28;20097;-31
2023/08/27 00:17:32;;;;;;;14.27;7.15;;;;;;;;;;5057584;28;20247;-31
2023/08/27 00:19:58;;;;;;;11.43;7.17;;;;;;;;;;5056956;28;20464;-31
2023/08/27 00:22:23;;;;;;;10.27;7.18;;;;;;;;;;5056837;28;20263;-31
2023/08/27 00:24:48;;;;;;;13.38;7.70;;;;;;;;;;5057164;28;20025;-31
2023/08/27 00:27:14;;;;;;;10.20;6.75;;;;;;;;;;5056776;28;20028;-31
2023/08/27 00:29:39;;;;;;;10.98;7.18;;;;;;;;;;5056989;28;20017;-31
2023/08/27 00:32:05;;;;;;;10.38;7.28;;;;;;;;;;5056996;28;20100;-31
2023/08/27 00:34:31;;;;;;;10.48;7.40;;;;;;;;;;5056650;28;20384;-31
2023/08/27 00:36:56;;;;;;;10.02;7.65;;;;;;;;;;5056921;28;20063;-31
2023/08/27 00:39:21;;;;;;;10.47;7.50;;;;;;;;;;5057136;28;20087;-31
2023/08/27 00:41:46;;;;;;;10.87;7.43;;;;;;;;;;5056882;28;20782;-31
2023/08/27 00:44:11;;;;;;;11.97;7.50;;;;;;;;;;5057081;28;20297;-30
2023/08/27 00:46:37;;;;;;;12.13;7.60;;;;;;;;;;5056465;28;20274;-31
2023/08/27 00:49:02;;;;;;;10.43;7.07;;;;;;;;;;5056685;28;20583;-31
2023/08/27 00:51:27;;;;;;;10.65;7.35;;;;;;;;;;5056651;28;20251;-31
2023/08/27 00:53:52;;;;;;;11.02;7.40;;;;;;;;;;5056337;28;20490;-31
2023/08/27 00:56:17;;;;;;;12.37;7.57;;;;;;;;;;5056372;28;20429;-30
2023/08/27 00:58:43;;;;;;;11.87;7.90;;;;;;;;;;5056804;28;20327;-31
2023/08/27 01:01:08;;;;;;;9.10;6.90;;;;;;;;;;5056460;28;20252;-31
2023/08/27 01:03:33;;;;;;;11.93;7.43;;;;;;;;;;5055880;28;20021;-30
2023/08/27 01:05:59;;;;;;;9.30;7.13;;;;;;;;;;5055600;28;20079;-30
2023/08/27 01:08:33;;;;;;;16.63;7.60;;;;;;;;;;5055937;28;20028;-30
2023/08/27 01:11:12;;;;;;;13.80;7.03;;;;;;;;;;5056033;28;20067;-31
2023/08/27 01:13:40;;;;;;;11.15;6.93;;;;;;;;;;5055871;28;20049;-31
2023/08/27 01:16:05;;;;;;;10.15;6.95;;;;;;;;;;5055926;28;20400;-31
2023/08/27 01:18:31;;;;;;;12.20;7.35;;;;;;;;;;5055838;28;20024;-30
2023/08/27 01:20:56;;;;;;;16.90;7.63;;;;;;;;;;5055826;28;20464;-30
2023/08/27 01:23:21;;;;;;;11.05;6.95;;;;;;;;;;5055584;28;20064;-31
2023/08/27 01:25:49;;;;;;;11.60;7.27;;;;;;;;;;5056302;28;20017;-31
2023/08/27 01:28:20;;;;;;;13.13;7.63;;;;;;;;;;5055905;28;20286;-31
2023/08/27 01:30:55;;;;;;;13.57;7.47;;;;;;;;;;5055505;28;20079;-31
2023/08/27 01:33:24;;;;;;;10.73;7.30;;;;;;;;;;5055812;28;20020;-31
2023/08/27 01:35:50;;;;;;;8.50;7.05;;;;;;;;;;5055823;28;20123;-30
2023/08/27 01:38:16;;;;;;;16.10;7.38;;;;;;;;;;5055600;28;20456;-31
2023/08/27 01:40:41;;;;;;;9.68;7.38;;;;;;;;;;5055747;28;20024;-31
2023/08/27 01:43:06;;;;;;;14.00;7.47;;;;;;;;;;5055494;28;20028;-31
2023/08/27 01:45:31;;;;;;;11.52;7.95;;;;;;;;;;5055606;28;20715;-31
2023/08/27 01:47:57;;;;;;;14.70;7.32;;;;;;;;;;5055541;28;20100;-31
2023/08/27 01:50:22;;;;;;;8.73;7.10;;;;;;;;;;5055484;28;20021;-31
2023/08/27 01:52:47;;;;;;;11.13;7.50;;;;;;;;;;5054018;28;20096;-30
2023/08/27 01:55:12;;;;;;;12.13;7.53;;;;;;;;;;5055188;28;20343;-30
2023/08/27 01:57:37;;;;;;;11.07;7.25;;;;;;;;;;5055323;28;20020;-30
2023/08/27 02:00:08;;;;;;;13.60;8.07;;;;;;;;;;5055400;28;20456;-31
2023/08/27 02:02:33;;;;;;;10.70;7.22;;;;;;;;;;5055021;28;20298;-31
2023/08/27 02:04:59;;;;;;;11.80;7.18;;;;;;;;;;5055049;28;20480;-31
2023/08/27 02:07:24;;;;;;;11.70;8.10;;;;;;;;;;5054939;28;20391;-32
2023/08/27 02:09:49;;;;;;;12.93;7.40;;;;;;;;;;5055419;28;20287;-32
2023/08/27 02:12:14;;;;;;;12.05;7.07;;;;;;;;;;5055139;28;20251;-32
2023/08/27 02:14:39;;;;;;;9.87;7.30;;;;;;;;;;5054720;28;20044;-31
2023/08/27 02:17:05;;;;;;;13.25;7.35;;;;;;;;;;5053720;28;20259;-31
2023/08/27 02:19:30;;;;;;;13.07;8.00;;;;;;;;;;5055308;28;20025;-32
2023/08/27 02:21:55;;;;;;;12.10;7.43;;;;;;;;;;5055167;28;20256;-31
2023/08/27 02:24:20;;;;;;;17.20;7.50;;;;;;;;;;5054914;28;20727;-30
2023/08/27 02:26:45;;;;;;;10.63;6.88;;;;;;;;;;5055188;28;20020;-31
2023/08/27 02:29:11;;;;;;;10.40;7.43;;;;;;;;;;5055087;28;20039;-30
2023/08/27 02:31:36;;;;;;;10.32;7.22;;;;;;;;;;5054468;28;20274;-32
2023/08/27 02:34:02;;;;;;;11.57;6.63;;;;;;;;;;5054979;28;20023;-30
2023/08/27 02:36:27;;;;;;;9.52;6.68;;;;;;;;;;5054718;28;20358;-32
2023/08/27 02:38:54;;;;;;;11.33;6.70;;;;;;;;;;5054941;28;20033;-32
2023/08/27 02:41:19;;;;;;;10.38;6.55;;;;;;;;;;5054991;28;20267;-30
2023/08/27 02:43:44;;;;;;;13.40;7.10;;;;;;;;;;5054500;28;20021;-30
2023/08/27 02:46:09;;;;;;;8.83;6.40;;;;;;;;;;5054481;28;20606;-30
2023/08/27 02:48:35;;;;;;;9.68;6.53;;;;;;;;;;5054360;28;20276;-32
2023/08/27 02:51:00;;;;;;;12.00;6.80;;;;;;;;;;5054472;28;20493;-31
2023/08/27 02:53:26;;;;;;;10.45;6.82;;;;;;;;;;5054063;28;20239;-31
2023/08/27 02:55:51;;;;;;;12.32;6.35;;;;;;;;;;5054351;28;20027;-30
2023/08/27 02:58:16;;;;;;;7.73;6.53;;;;;;;;;;5054248;28;20364;-31
2023/08/27 03:00:41;;;;;;;11.97;6.63;;;;;;;;;;5054289;28;20262;-30
2023/08/27 03:03:07;;;;;;;12.03;6.77;;;;;;;;;;5053913;28;20017;-31
2023/08/27 03:05:33;;;;;;;13.85;7.13;;;;;;;;;;5054361;28;20718;-31
2023/08/27 03:07:58;;;;;;;10.52;6.88;;;;;;;;;;5053936;28;20013;-31
2023/08/27 03:10:23;;;;;;;9.23;6.38;;;;;;;;;;5054153;28;20025;-31
2023/08/27 03:12:48;;;;;;;10.20;6.68;;;;;;;;;;5053712;28;20043;-30
2023/08/27 03:15:15;;;;;;;10.02;6.57;;;;;;;;;;5054098;28;20449;-30
2023/08/27 03:17:40;;;;;;;9.00;6.45;;;;;;;;;;5054290;28;20029;-30
2023/08/27 03:20:05;;;;;;;10.60;6.47;;;;;;;;;;5053971;28;20414;-30
2023/08/27 03:22:31;;;;;;;12.80;6.97;;;;;;;;;;5053866;28;20255;-30
2023/08/27 03:24:56;;;;;;;10.07;6.90;;;;;;;;;;5053626;28;20017;-32
2023/08/27 03:27:21;;;;;;;9.50;6.40;;;;;;;;;;5053491;28;20286;-31
2023/08/27 03:29:47;;;;;;;9.85;6.40;;;;;;;;;;5053690;28;20380;-31
2023/08/27 03:32:13;;;;;;;11.07;6.93;;;;;;;;;;5053568;28;20329;-30
2023/08/27 03:34:39;;;;;;;9.73;6.72;;;;;;;;;;5053792;28;20044;-31
2023/08/27 03:37:04;;;;;;;13.07;6.60;;;;;;;;;;5054111;28;20012;-30
2023/08/27 03:39:29;;;;;;;9.50;6.40;;;;;;;;;;5053382;28;20017;-30
2023/08/27 03:41:54;;;;;;;9.47;6.40;;;;;;;;;;5053391;28;20147;-31
2023/08/27 03:44:19;;;;;;;14.43;6.70;;;;;;;;;;5053652;28;20596;-32
2023/08/27 03:46:44;;;;;;;9.87;6.57;;;;;;;;;;5053516;28;20809;-30
2023/08/27 03:49:10;;;;;;;15.93;7.13;;;;;;;;;;5053664;28;20262;-31
2023/08/27 03:51:35;;;;;;;9.57;6.40;;;;;;;;;;5053853;28;20406;-31
2023/08/27 03:54:00;;;;;;;12.53;7.00;;;;;;;;;;5053339;28;20357;-31
2023/08/27 03:56:25;;;;;;;11.60;7.33;;;;;;;;;;5053308;28;20267;-31
2023/08/27 03:58:50;;;;;;;12.32;7.45;;;;;;;;;;5053249;28;20029;-31
2023/08/27 04:01:16;;;;;;;12.10;7.00;;;;;;;;;;5053602;28;20083;-30
2023/08/27 04:03:41;;;;;;;13.55;7.88;;;;;;;;;;5053583;28;20476;-31
2023/08/27 04:06:07;;;;;;;11.40;7.20;;;;;;;;;;5053744;28;20020;-30
2023/08/27 04:08:32;;;;;;;12.80;7.47;;;;;;;;;;5053342;28;20750;-30
2023/08/27 04:10:57;;;;;;;14.07;7.50;;;;;;;;;;5053155;28;20460;-31
2023/08/27 04:13:22;;;;;;;10.60;7.47;;;;;;;;;;5053198;28;20287;-31
2023/08/27 04:16:00;;;;;;;11.88;7.35;;;;;;;;;;5053625;28;20608;-30
2023/08/27 04:18:27;;;;;;;15.88;7.35;;;;;;;;;;5053350;28;20016;-32
2023/08/27 04:20:52;;;;;;;13.38;7.20;;;;;;;;;;5052975;28;20032;-31
2023/08/27 04:23:17;;;;;;;13.67;7.70;;;;;;;;;;5053059;28;20025;-31
2023/08/27 04:25:43;;;;;;;12.65;8.15;;;;;;;;;;5053209;28;20321;-30
2023/08/27 04:28:08;;;;;;;12.43;8.05;;;;;;;;;;5053056;28;20048;-32
2023/08/27 04:30:33;;;;;;;15.53;7.80;;;;;;;;;;5053192;28;20021;-31
2023/08/27 04:32:58;;;;;;;11.33;7.63;;;;;;;;;;5052880;28;20753;-30
2023/08/27 04:35:24;;;;;;;12.93;7.88;;;;;;;;;;5053174;28;20025;-32
2023/08/27 04:37:49;;;;;;;10.73;7.27;;;;;;;;;;5053916;28;20075;-31
2023/08/27 04:40:14;;;;;;;11.67;7.23;;;;;;;;;;5055092;28;20343;-30
2023/08/27 04:42:39;;;;;;;11.90;7.50;;;;;;;;;;5057234;28;20248;-31
2023/08/27 04:45:05;;;;;;;9.60;6.57;;;;;;;;;;5056631;28;20024;-30
2023/08/27 04:47:30;;;;;;;12.13;5.93;;;;;;;;;;5056387;28;20036;-31
2023/08/27 04:49:55;;;;;;;9.97;5.30;;;;;;;;;;5056523;28;20013;-31
2023/08/27 04:52:20;;;;;;;7.57;5.15;;;;;;;;;;5056654;28;20782;-31
2023/08/27 04:54:46;;;;;;;7.47;4.63;;;;;;;;;;5056636;28;20483;-31
2023/08/27 04:57:11;;;;;;;7.70;3.70;;;;;;;;;;5056277;28;20302;-31
2023/08/27 04:59:36;;;;;;;11.33;4.63;;;;;;;;;;5056842;28;20256;-29
2023/08/27 05:02:02;;;;;;;6.88;4.40;;;;;;;;;;5056183;28;20258;-31
2023/08/27 05:04:30;;;;;;;9.50;5.00;;;;;;;;;;5056451;28;20404;-30
2023/08/27 05:06:55;;;;;;;9.02;4.80;;;;;;;;;;5056090;28;20052;-30
2023/08/27 05:09:21;;;;;;;8.45;5.00;;;;;;;;;;5056140;28;20476;-31
2023/08/27 05:11:46;;;;;;;16.10;5.27;;;;;;;;;;5056361;28;20435;-31
2023/08/27 05:14:11;;;;;;;8.27;4.73;;;;;;;;;;5055851;28;20754;-30
2023/08/27 05:16:36;;;;;;;8.10;5.07;;;;;;;;;;5055986;28;20260;-31
2023/08/27 05:19:02;;;;;;;7.05;4.90;;;;;;;;;;5056185;28;20264;-31
2023/08/27 05:21:27;;;;;;;8.30;5.18;;;;;;;;;;5056131;28;20035;-31
2023/08/27 05:23:52;;;;;;;11.00;5.78;;;;;;;;;;5056086;28;20025;-30
2023/08/27 05:26:18;;;;;;;9.48;5.72;;;;;;;;;;5056057;28;20028;-30
2023/08/27 05:28:43;;;;;;;11.75;6.35;;;;;;;;;;5055823;28;20024;-31
2023/08/27 05:31:08;;;;;;;13.87;6.70;;;;;;;;;;5055620;28;20024;-31
2023/08/27 05:33:33;;;;;;;11.32;7.03;;;;;;;;;;5055835;28;20252;-31
2023/08/27 05:35:58;;;;;;;13.33;7.33;;;;;;;;;;5055577;28;20066;-31
2023/08/27 05:38:24;;;;;;;11.20;7.67;;;;;;;;;;5055530;28;20345;-31
2023/08/27 05:40:52;;;;;;;13.15;7.70;;;;;;;;;;5056009;28;20580;-31
2023/08/27 05:43:17;;;;;;;15.00;7.80;;;;;;;;;;5055705;28;20067;-31
2023/08/27 05:45:43;;;;;;;15.95;7.72;;;;;;;;;;5055388;28;20021;-30
2023/08/27 05:48:08;;;;;;;11.60;8.10;;;;;;;;;;5055557;28;20027;-32
2023/08/27 05:50:34;;;;;;;12.60;7.95;;;;;;;;;;5055621;28;20265;-32
2023/08/27 05:52:59;;;;;;;15.98;8.43;;;;;;;;;;5055506;28;20453;-32
2023/08/27 05:55:24;;;;;;;14.93;8.80;;;;;;;;;;5055478;28;20410;-31
2023/08/27 05:57:49;;;;;;;14.03;8.17;;;;;;;;;;5055837;28;20025;-31
2023/08/27 06:00:15;;;;;;;13.93;8.00;;;;;;;;;;5055162;28;20040;-31
2023/08/27 06:02:40;;;;;;;15.13;8.50;;;;;;;;;;5055064;28;20290;-30
2023/08/27 06:05:05;;;;;;;12.40;7.63;;;;;;;;;;5054947;28;20178;-30
2023/08/27 06:07:30;;;;;;;17.08;8.45;;;;;;;;;;5055588;28;20032;-30
2023/08/27 06:09:56;;;;;;;11.83;8.23;;;;;;;;;;5055185;28;20376;-31
2023/08/27 06:12:21;;;;;;;12.33;7.93;;;;;;;;;;5055217;28;20259;-30
2023/08/27 06:14:46;;;;;;;12.93;8.83;;;;;;;;;;5054750;28;20447;-30
2023/08/27 06:17:11;;;;;;;13.10;8.20;;;;;;;;;;5055599;28;20775;-31
2023/08/27 06:19:36;;;;;;;10.53;7.80;;;;;;;;;;5054852;28;20260;-31
2023/08/27 06:22:01;;;;;;;11.83;8.13;;;;;;;;;;5055032;28;20471;-31
2023/08/27 06:24:27;;;;;;;14.27;8.48;;;;;;;;;;5054672;28;20317;-31
2023/08/27 06:26:52;;;;;;;14.47;8.23;;;;;;;;;;5055092;28;20029;-31
2023/08/27 06:29:17;;;;;;;10.60;7.13;;;;;;;;;;5055179;28;20254;-30
2023/08/27 06:31:43;;;;;;;9.50;6.75;;;;;;;;;;5054751;28;20252;-31
2023/08/27 06:34:08;;;;;;;12.40;6.43;;;;;;;;;;5054768;28;20472;-31
2023/08/27 06:36:34;;;;;;;14.37;6.97;;;;;;;;;;5054702;28;20020;-31
2023/08/27 06:38:59;;;;;;;12.23;7.93;;;;;;;;;;5054379;28;20346;-31
2023/08/27 06:41:24;;;;;;;13.63;7.40;;;;;;;;;;5054952;28;20248;-34
2023/08/27 06:43:49;;;;;;;12.10;8.03;;;;;;;;;;5054369;28;20298;-30
2023/08/27 06:46:14;;;;;;;11.20;7.90;;;;;;;;;;5054656;28;20027;-31
2023/08/27 06:48:40;;;;;;;14.30;9.30;;;;;;;;;;5054573;28;20025;-30
2023/08/27 06:51:05;;;;;;;13.23;9.53;;;;;;;;;;5054762;28;20611;-32
2023/08/27 06:53:30;;;;;;;16.15;10.48;;;;;;;;;;5054414;28;20738;-31
2023/08/27 06:55:55;;;;;;;18.30;10.60;;;;;;;;;;5054372;28;20017;-31
2023/08/27 06:58:21;;;;;;;14.87;11.53;;;;;;;;;;5054254;28;20480;-31
2023/08/27 07:00:46;;;;;;;17.50;10.87;;;;;;;;;;5053996;28;20255;-31
2023/08/27 07:03:12;;;;;;;14.90;10.55;;;;;;;;;;5053588;28;20256;-31
2023/08/27 07:05:38;;;;;;;19.48;10.10;;;;;;;;;;5054274;28;20365;-30
2023/08/27 07:08:04;;;;;;;14.10;10.30;;;;;;;;;;5053761;28;20027;-31
2023/08/27 07:10:29;;;;;;;13.23;9.60;;;;;;;;;;5054403;28;20025;-31
2023/08/27 07:12:54;;;;;;;14.43;9.38;;;;;;;;;;5053642;28;20013;-31
2023/08/27 07:15:20;;;;;;;12.95;9.00;;;;;;;;;;5054026;28;20029;-31
2023/08/27 07:17:45;;;;;;;12.23;8.30;;;;;;;;;;5054012;28;20425;-31
2023/08/27 07:20:11;;;;;;;14.40;8.63;;;;;;;;;;5053948;28;20635;-31
2023/08/27 07:22:36;;;;;;;12.80;8.35;;;;;;;;;;5053879;28;20053;-29
2023/08/27 07:25:02;;;;;;;13.35;8.32;;;;;;;;;;5053581;28;20372;-31
2023/08/27 07:27:27;;;;;;;11.25;8.30;;;;;;;;;;5053741;28;20103;-31
2023/08/27 07:29:53;;;;;;;15.15;8.80;;;;;;;;;;5053687;28;20021;-31
2023/08/27 07:32:18;;;;;;;13.77;9.07;;;;;;;;;;5053775;28;20376;-30
2023/08/27 07:34:43;;;;;;;11.97;8.83;;;;;;;;;;5053460;28;20017;-31
2023/08/27 07:37:08;;;;;;;14.23;9.17;;;;;;;;;;5053705;28;20255;-31
2023/08/27 07:39:34;;;;;;;12.17;8.50;;;;;;;;;;5053375;28;20259;-31
2023/08/27 07:41:59;;;;;;;15.20;8.73;;;;;;;;;;5053430;28;20247;-31
2023/08/27 07:44:25;;;;;;;13.73;9.20;;;;;;;;;;5053736;28;20357;-30
2023/08/27 07:46:50;;;;;;;16.23;8.60;;;;;;;;;;5053306;28;20075;-31
2023/08/27 07:49:15;;;;;;;12.03;8.20;;;;;;;;;;5053516;28;20020;-31
2023/08/27 07:51:40;;;;;;;10.50;7.53;;;;;;;;;;5053531;28;20259;-31
2023/08/27 07:54:06;;;;;;;12.10;8.20;;;;;;;;;;5053238;28;20013;-31
2023/08/27 07:56:31;;;;;;;12.10;7.50;;;;;;;;;;5053262;28;20028;-35
2023/08/27 07:58:56;;;;;;;11.97;6.50;;;;;;;;;;5053263;28;20434;-30
2023/08/27 08:01:21;;;;;;;12.33;6.30;;;;;;;;;;5053138;28;20321;-30
2023/08/27 08:03:47;;;;;;;9.60;5.55;;;;;;;;;;5053159;28;20251;-31
2023/08/27 08:06:13;;;;;;;7.43;5.03;;;;;;;;;;5053456;28;20143;-31
2023/08/27 08:08:38;;;;;;;9.05;5.03;;;;;;;;;;5053358;28;20025;-31
2023/08/27 08:11:03;;;;;;;9.63;4.88;;;;;;;;;;5053112;28;20459;-31
2023/08/27 08:13:28;;;;;;;7.43;5.10;;;;;;;;;;5053122;28;20049;-31
2023/08/27 08:15:53;;;;;;;7.60;5.03;;;;;;;;;;5056790;28;20037;-31
2023/08/27 08:18:19;;;;;;;13.53;5.43;;;;;;;;;;5057067;28;20260;-30
2023/08/27 08:20:44;;;;;;;9.90;5.13;;;;;;;;;;5057073;28;20045;-31
2023/08/27 08:23:09;;;;;;;9.40;5.20;;;;;;;;;;5057257;28;20020;-31
2023/08/27 08:25:35;;;;;;;10.90;6.10;;;;;;;;;;5056980;28;20031;-30
2023/08/27 08:28:00;;;;;;;11.45;6.32;;;;;;;;;;5057099;28;20154;-31
2023/08/27 08:30:25;;;;;;;9.98;6.32;;;;;;;;;;5057066;28;20020;-31
2023/08/27 08:32:51;;;;;;;11.70;6.50;;;;;;;;;;5056760;28;20021;-31
2023/08/27 08:35:16;;;;;;;9.95;6.63;;;;;;;;;;5057336;28;20021;-30
2023/08/27 08:37:41;;;;;;;12.53;7.30;;;;;;;;;;5056744;28;20412;-31
2023/08/27 08:40:07;;;;;;;10.63;6.43;;;;;;;;;;5057235;28;20025;-31
2023/08/27 08:42:46;;;;;;;12.98;6.35;;;;;;;;;;5056614;28;20021;-31
2023/08/27 08:45:31;;;;;;;9.30;6.72;;;;;;;;;;5056943;28;20041;-30
2023/08/27 08:47:56;;;;;;;9.77;6.18;;;;;;;;;;5056744;28;20452;-30
2023/08/27 08:50:22;;;;;;;12.35;6.35;;;;;;;;;;5056424;28;20048;-31
2023/08/27 08:52:48;;;;;;;8.93;6.03;;;;;;;;;;5056440;28;20013;-31
2023/08/27 08:55:15;;;;;;;10.77;5.63;;;;;;;;;;5056342;28;20482;-31
2023/08/27 08:57:45;;;;;;;8.13;5.80;;;;;;;;;;5056409;28;20490;-31
2023/08/27 09:00:11;;;;;;;8.20;5.60;;;;;;;;;;5056317;28;20032;-30
2023/08/27 09:02:36;;;;;;;9.10;5.70;;;;;;;;;;5056249;28;20041;-31
2023/08/27 09:05:02;;;;;;;9.52;5.63;;;;;;;;;;5056222;28;20044;-31
2023/08/27 09:07:28;;;;;;;7.57;5.30;;;;;;;;;;5056362;28;20056;-31
2023/08/27 09:09:56;;;;;;;8.15;5.30;;;;;;;;;;5056072;28;20024;-31
2023/08/27 09:12:22;;;;;;;8.23;5.35;;;;;;;;;;5056260;28;20031;-32
2023/08/27 09:14:47;;;;;;;8.05;4.95;;;;;;;;;;5055989;28;20496;-32
2023/08/27 09:17:16;;;;;;;8.02;4.85;;;;;;;;;;5055981;28;20023;-32
2023/08/27 09:19:42;;;;;;;10.05;5.20;;;;;;;;;;5055907;28;20021;-31
2023/08/27 09:22:07;;;;;;;6.73;4.97;;;;;;;;;;5055943;28;20075;-31
2023/08/27 09:24:32;;;;;;;9.03;5.60;;;;;;;;;;5055666;28;20021;-32
2023/08/27 09:26:57;;;;;;;9.60;5.53;;;;;;;;;;5055810;28;20660;-32
2023/08/27 09:29:23;;;;;;;9.83;5.37;;;;;;;;;;5055972;28;20017;-31
2023/08/27 09:31:48;;;;;;;8.32;5.18;;;;;;;;;;5055600;28;20089;-31
2023/08/27 09:34:14;;;;;;;8.98;5.18;;;;;;;;;;5055851;28;20055;-31
2023/08/27 09:36:40;;;;;;;7.45;5.68;;;;;;;;;;5055924;28;20037;-32
2023/08/27 09:39:09;;;;;;;10.75;5.15;;;;;;;;;;5055812;28;20464;-31
2023/08/27 09:41:38;;;;;;;9.02;5.43;;;;;;;;;;5055813;28;20494;-31
2023/08/27 09:44:04;;;;;;;8.10;4.88;;;;;;;;;;5055430;28;20013;-31
2023/08/27 09:46:29;;;;;;;7.45;4.65;;;;;;;;;;5055695;28;20112;-31
2023/08/27 09:48:58;;;;;;;6.72;4.40;;;;;;;;;;5055868;28;20356;-31
2023/08/27 09:51:24;;;;;;;9.77;4.80;;;;;;;;;;5055843;28;20025;-32
2023/08/27 09:53:49;;;;;;;7.13;4.53;;;;;;;;;;5055237;28;20020;-31
2023/08/27 09:56:17;;;;;;;7.47;4.28;;;;;;;;;;5055490;28;20017;-31
2023/08/27 09:58:42;;;;;;;6.55;3.38;;;;;;;;;;5055117;28;20016;-31
2023/08/27 10:01:08;;;;;;;5.90;3.00;;;;;;;;;;5055298;28;20491;-31
2023/08/27 10:03:33;;;;;;;3.72;1.73;;;;;;;;;;5055444;28;20115;-31
2023/08/27 10:06:01;;;;;;;3.55;1.95;;;;;;;;;;5055351;28;20028;-31
2023/08/27 10:08:26;;;;;;;2.55;1.40;;;;;;;;;;5055231;28;20028;-31
2023/08/27 10:10:51;;;;;;;2.43;1.20;;;;;;;;;;5054462;28;20017;-31
2023/08/27 10:13:18;;;;;;;1.02;0.90;;;;;;;;;;5054749;28;20056;-31
2023/08/27 10:15:43;;;;;;;2.30;0.90;;;;;;;;;;5054885;28;20028;-31
2023/08/27 10:18:15;;;;;;;2.22;0.90;;;;;;;;;;5054885;28;20021;-31
2023/08/27 10:20:41;;;;;;;1.85;0.88;;;;;;;;;;5054852;28;20099;-30
2023/08/27 10:23:07;;;;;;;2.45;0.90;;;;;;;;;;5054935;28;20028;-31
2023/08/27 10:25:32;;;;;;;1.48;0.80;;;;;;;;;;5055024;28;20037;-32
2023/08/27 10:27:58;;;;;;;3.08;1.05;;;;;;;;;;5054612;28;20472;-31
2023/08/27 10:30:24;;;;;;;1.92;1.05;;;;;;;;;;5054789;28;20407;-31
2023/08/27 10:32:49;;;;;;;2.20;1.13;;;;;;;;;;5054724;28;20015;-32
2023/08/27 10:35:14;;;;;;;1.63;1.10;;;;;;;;;;5054800;28;20427;-32
2023/08/27 10:37:44;;;;;;;7.68;1.20;;;;;;;;;;5053518;28;20021;-31
2023/08/27 10:40:10;;;;;;;2.30;1.25;;;;;;;;;;5055092;28;20025;-30
2023/08/27 10:42:39;;;;;;;5.40;1.30;;;;;;;;;;5054873;28;20098;-32
2023/08/27 10:45:10;;;;;;;3.50;1.20;;;;;;;;;;5054862;28;20021;-32
2023/08/27 10:47:35;;;;;;;2.13;0.98;;;;;;;;;;5054193;28;20056;-31
2023/08/27 10:50:00;;;;;;;2.60;1.20;;;;;;;;;;5054209;28;20051;-30
2023/08/27 10:52:26;;;;;;;4.60;1.17;;;;;;;;;;5054673;28;20247;-31
2023/08/27 10:55:00;;;;;;;3.43;1.30;;;;;;;;;;5054636;28;20103;-31
2023/08/27 10:57:26;;;;;;;2.42;1.10;;;;;;;;;;5054755;28;20259;-31
2023/08/27 11:00:05;;;;;;;3.75;0.98;;;;;;;;;;5053971;28;20020;-31
2023/08/27 11:02:50;;;;;;;3.03;1.40;;;;;;;;;;5054033;28;20110;-30
2023/08/27 11:05:24;;;;;;;4.85;1.20;;;;;;;;;;5053807;28;20029;-30
2023/08/27 11:07:50;;;;;;;1.85;0.85;;;;;;;;;;5053841;28;20027;-30
2023/08/27 11:10:16;;;;;;;2.88;1.23;;;;;;;;;;5053873;28;20103;-31
2023/08/27 11:12:41;;;;;;;3.15;0.98;;;;;;;;;;5053648;28;20032;-31
2023/08/27 11:15:13;;;;;;;3.67;1.13;;;;;;;;;;5054289;28;20025;-31
2023/08/27 11:17:38;;;;;;;3.22;1.10;;;;;;;;;;5054064;28;20255;-32
2023/08/27 11:20:23;;;;;;;2.10;0.80;;;;;;;;;;5053667;28;20020;-32
2023/08/27 11:22:56;;;;;;;3.28;1.05;;;;;;;;;;5053877;28;20551;-30
2023/08/27 11:25:22;;;;;;;4.10;1.20;;;;;;;;;;5053559;28;20021;-33
2023/08/27 11:27:47;;;;;;;3.63;0.85;;;;;;;;;;5054063;28;20033;-30
2023/08/27 11:30:12;;;;;;;3.53;1.30;;;;;;;;;;5053647;28;20036;-32
2023/08/27 11:32:37;;;;;;;5.07;0.80;;;;;;;;;;5053983;28;20479;-31
2023/08/27 11:35:05;;;;;;;4.10;1.07;;;;;;;;;;5053495;28;20017;-31
2023/08/27 11:37:31;;;;;;;2.38;0.98;;;;;;;;;;5053745;28;20032;-30
2023/08/27 11:39:56;;;;;;;2.60;1.00;;;;;;;;;;5053665;28;20017;-31
2023/08/27 11:42:22;;;;;;;7.27;1.10;;;;;;;;;;5053414;28;20024;-32
2023/08/27 11:44:48;;;;;;;5.57;1.03;;;;;;;;;;5053624;28;20252;-31
2023/08/27 11:47:13;;;;;;;3.70;0.95;;;;;;;;;;5053518;28;20244;-31
2023/08/27 11:49:39;;;;;;;6.03;1.17;;;;;;;;;;5053083;28;20028;-32
2023/08/27 11:52:04;;;;;;;1.63;0.95;;;;;;;;;;5053367;28;20021;-31
2023/08/27 11:54:30;;;;;;;4.65;1.10;;;;;;;;;;5053340;28;20372;-32
2023/08/27 11:56:56;;;;;;;4.18;1.20;;;;;;;;;;5053571;28;20035;-31
2023/08/27 11:59:22;;;;;;;1.52;0.90;;;;;;;;;;5053428;28;20043;-32
2023/08/27 12:01:47;;;;;;;2.45;1.00;;;;;;;;;;5053948;28;20025;-31
2023/08/27 12:04:13;;;;;;;5.07;1.40;;;;;;;;;;5053243;28;20021;-31
2023/08/27 12:06:49;;;;;;;4.25;1.60;;;;;;;;;;5053160;28;20107;-32
2023/08/27 12:09:21;;;;;;;4.20;1.40;;;;;;;;;;5053375;28;20055;-32
2023/08/27 12:11:46;;;;;;;4.28;1.30;;;;;;;;;;5053144;28;20361;-31
2023/08/27 12:14:11;;;;;;;4.00;1.27;;;;;;;;;;5052911;28;20072;-32
2023/08/27 12:16:38;;;;;;;3.57;1.40;;;;;;;;;;5053632;28;20017;-31
2023/08/27 12:19:05;;;;;;;3.97;1.60;;;;;;;;;;5053340;28;20384;-30
2023/08/27 12:21:49;;;;;;;2.75;1.60;;;;;;;;;;5052971;28;20021;-31
2023/08/27 12:24:30;;;;;;;3.28;1.70;;;;;;;;;;5052996;28;20025;-31
2023/08/27 12:26:55;;;;;;;3.42;1.65;;;;;;;;;;5053215;28;20100;-31
2023/08/27 12:29:21;;;;;;;4.07;1.50;;;;;;;;;;5052888;28;20056;-30
2023/08/27 12:31:46;;;;;;;3.70;1.48;;;;;;;;;;5053132;28;20036;-31
2023/08/27 12:34:11;;;;;;;2.60;1.40;;;;;;;;;;5053083;28;20056;-31
2023/08/27 12:36:36;;;;;;;3.43;1.43;;;;;;;;;;5053103;28;20078;-31
2023/08/27 12:39:02;;;;;;;2.87;1.30;;;;;;;;;;5053130;28;20459;-30
2023/08/27 12:41:28;;;;;;;3.60;1.33;;;;;;;;;;5053174;28;20028;-31
2023/08/27 12:43:55;;;;;;;4.07;1.42;;;;;;;;;;5053092;28;20021;-31
2023/08/27 12:46:21;;;;;;;3.65;1.25;;;;;;;;;;5053047;28;20100;-31
2023/08/27 12:48:46;;;;;;;3.00;1.02;;;;;;;;;;5053146;28;20017;-31
2023/08/27 12:51:11;;;;;;;2.50;1.10;;;;;;;;;;5052770;28;20027;-31
2023/08/27 12:53:37;;;;;;;1.97;1.00;;;;;;;;;;5052729;28;20143;-31
2023/08/27 12:56:02;;;;;;;4.43;1.47;;;;;;;;;;5052897;28;20272;-31
2023/08/27 12:58:27;;;;;;;4.70;1.83;;;;;;;;;;5052863;28;20031;-31
2023/08/27 13:00:52;;;;;;;3.37;1.23;;;;;;;;;;5052828;28;20052;-31
2023/08/27 13:03:18;;;;;;;5.28;1.30;;;;;;;;;;5056470;28;20025;-31
2023/08/27 13:05:43;;;;;;;6.00;1.43;;;;;;;;;;5056231;28;20013;-31
2023/08/27 13:08:08;;;;;;;4.28;1.60;;;;;;;;;;5056324;28;20039;-31
2023/08/27 13:10:33;;;;;;;3.92;1.77;;;;;;;;;;5056406;28;20017;-31
2023/08/27 13:12:58;;;;;;;3.17;1.40;;;;;;;;;;5055876;28;20094;-30
2023/08/27 13:15:25;;;;;;;3.97;1.60;;;;;;;;;;5055972;28;20256;-31
2023/08/27 13:17:50;;;;;;;3.90;1.77;;;;;;;;;;5055936;28;20291;-31
2023/08/27 13:20:15;;;;;;;3.87;1.50;;;;;;;;;;5056457;28;20098;-31
2023/08/27 13:22:41;;;;;;;5.30;2.08;;;;;;;;;;5056108;28;20021;-31
2023/08/27 13:25:07;;;;;;;9.95;1.90;;;;;;;;;;5055840;28;20124;-31
2023/08/27 13:27:32;;;;;;;5.93;1.70;;;;;;;;;;5055627;28;20103;-32
2023/08/27 13:29:57;;;;;;;2.70;1.43;;;;;;;;;;5056177;28;20099;-32
2023/08/27 13:32:23;;;;;;;4.50;1.20;;;;;;;;;;5055968;28;20714;-31
2023/08/27 13:34:48;;;;;;;1.37;0.80;;;;;;;;;;5056166;28;20264;-32
2023/08/27 13:37:14;;;;;;;2.42;1.00;;;;;;;;;;5055850;28;20252;-31
2023/08/27 13:39:39;;;;;;;2.20;1.13;;;;;;;;;;5056126;28;20028;-30
2023/08/27 13:42:04;;;;;;;4.67;1.10;;;;;;;;;;5054229;28;20263;-30
2023/08/27 13:44:29;;;;;;;2.22;1.40;;;;;;;;;;5055950;28;20063;-31
2023/08/27 13:46:55;;;;;;;7.80;1.80;;;;;;;;;;5055654;28;20483;-30
2023/08/27 13:49:20;;;;;;;4.10;1.57;;;;;;;;;;5055457;28;20267;-32
2023/08/27 13:51:45;;;;;;;2.73;1.50;;;;;;;;;;5055977;28;20053;-31
2023/08/27 13:54:10;;;;;;;4.70;1.60;;;;;;;;;;5054029;28;20354;-32
2023/08/27 13:56:35;;;;;;;3.57;1.47;;;;;;;;;;5055257;28;20247;-32
2023/08/27 13:59:00;;;;;;;4.90;1.63;;;;;;;;;;5055182;28;20108;-32
2023/08/27 14:01:26;;;;;;;4.17;1.63;;;;;;;;;;5055197;28;20028;-31
2023/08/27 14:03:51;;;;;;;3.00;1.38;;;;;;;;;;5055476;28;20050;-31
2023/08/27 14:06:17;;;;;;;2.05;1.20;;;;;;;;;;5055415;28;20044;-32
2023/08/27 14:08:44;;;;;;;4.28;1.58;;;;;;;;;;5055286;28;20017;-32
2023/08/27 14:11:09;;;;;;;3.03;1.80;;;;;;;;;;5054823;28;20040;-31
2023/08/27 14:13:38;;;;;;;3.93;1.40;;;;;;;;;;5054787;28;20091;-31
2023/08/27 14:16:03;;;;;;;5.25;1.90;;;;;;;;;;5055152;28;20259;-32
2023/08/27 14:18:28;;;;;;;3.67;2.20;;;;;;;;;;5055073;28;20476;-30
2023/08/27 14:20:53;;;;;;;4.63;2.50;;;;;;;;;;5054759;28;20798;-31
2023/08/27 14:23:20;;;;;;;4.20;2.80;;;;;;;;;;5055035;28;20028;-31
2023/08/27 14:25:45;;;;;;;5.22;2.90;;;;;;;;;;5055691;28;20354;-31
2023/08/27 14:28:10;;;;;;;8.07;3.03;;;;;;;;;;5055081;28;20047;-32